sensor_id;sensor_type;location;lat;lon;timestamp;P1;durP1;ratioP1;P2;durP2;ratioP2
2053;SDS011;1032;52.542;13.440;2023-03-01T00:00:53;40.05;;;27.90;;
2053;SDS011;1032;52.542;13.440;2023-03-01T00:03:20;43.13;;;27.75;;
2053;SDS011;1032;52.542;13.440;2023-03-01T00:05:47;36.08;;;26.23;;
2053;SDS011;1032;52.542;13.440;2023-03-01T00:08:13;36.60;;;25.77;;
2053;SDS011;1032;52.542;13.440;2023-03-01T00:10:41;38.67;;;24.45;;
2053;SDS011;1032;52.542;13.440;2023-03-01T00:13:08;36.20;;;26.23;;
2053;SDS011;1032;52.542;13.440;2023-03-01T00:15:37;36.30;;;25.85;;
2053;SDS011;1032;52.542;13.440;2023-03-01T00:18:05;43.45;;;26.45;;
2053;SDS011;1032;52.542;13.440;2023-03-01T00:20:31;34.55;;;26.17;;
2053;SDS011;1032;52.542;13.440;2023-03-01T00:22:58;37.30;;;24.33;;
2053;SDS011;1032;52.542;13.440;2023-03-01T00:25:25;34.97;;;25.05;;
2053;SDS011;1032;52.542;13.440;2023-03-01T00:27:53;38.58;;;25.02;;
2053;SDS011;1032;52.542;13.440;2023-03-01T00:30:19;35.10;;;23.80;;
2053;SDS011;1032;52.542;13.440;2023-03-01T00:32:46;42.05;;;25.08;;
2053;SDS011;1032;52.542;13.440;2023-03-01T00:35:12;40.58;;;27.23;;
2053;SDS011;1032;52.542;13.440;2023-03-01T00:37:39;38.47;;;26.05;;
2053;SDS011;1032;52.542;13.440;2023-03-01T00:40:07;34.38;;;25.00;;
2053;SDS011;1032;52.542;13.440;2023-03-01T00:42:35;39.70;;;26.30;;
2053;SDS011;1032;52.542;13.440;2023-03-01T00:45:03;33.78;;;23.58;;
2053;SDS011;1032;52.542;13.440;2023-03-01T00:47:32;35.20;;;25.30;;
2053;SDS011;1032;52.542;13.440;2023-03-01T00:49:59;36.72;;;26.38;;
2053;SDS011;1032;52.542;13.440;2023-03-01T00:52:26;37.13;;;24.52;;
2053;SDS011;1032;52.542;13.440;2023-03-01T00:54:53;38.08;;;23.92;;
2053;SDS011;1032;52.542;13.440;2023-03-01T00:57:19;39.53;;;23.25;;
2053;SDS011;1032;52.542;13.440;2023-03-01T00:59:46;28.85;;;23.88;;
2053;SDS011;1032;52.542;13.440;2023-03-01T01:02:14;40.42;;;25.52;;
2053;SDS011;1032;52.542;13.440;2023-03-01T01:04:41;32.15;;;24.00;;
2053;SDS011;1032;52.542;13.440;2023-03-01T01:07:07;37.58;;;23.85;;
2053;SDS011;1032;52.542;13.440;2023-03-01T01:09:34;33.60;;;22.92;;
2053;SDS011;1032;52.542;13.440;2023-03-01T01:12:01;30.60;;;23.65;;
2053;SDS011;1032;52.542;13.440;2023-03-01T01:14:28;37.83;;;22.33;;
2053;SDS011;1032;52.542;13.440;2023-03-01T01:16:55;33.60;;;23.90;;
2053;SDS011;1032;52.542;13.440;2023-03-01T01:19:24;40.95;;;24.45;;
2053;SDS011;1032;52.542;13.440;2023-03-01T01:21:51;27.80;;;21.30;;
2053;SDS011;1032;52.542;13.440;2023-03-01T01:24:19;31.95;;;22.70;;
2053;SDS011;1032;52.542;13.440;2023-03-01T01:26:45;32.97;;;22.02;;
2053;SDS011;1032;52.542;13.440;2023-03-01T01:29:12;31.15;;;21.15;;
2053;SDS011;1032;52.542;13.440;2023-03-01T01:31:40;24.27;;;18.20;;
2053;SDS011;1032;52.542;13.440;2023-03-01T01:34:11;25.33;;;19.58;;
2053;SDS011;1032;52.542;13.440;2023-03-01T01:36:41;35.30;;;20.38;;
2053;SDS011;1032;52.542;13.440;2023-03-01T01:39:08;27.23;;;19.02;;
2053;SDS011;1032;52.542;13.440;2023-03-01T01:41:38;29.00;;;21.50;;
2053;SDS011;1032;52.542;13.440;2023-03-01T01:44:11;29.50;;;19.90;;
2053;SDS011;1032;52.542;13.440;2023-03-01T01:46:40;32.33;;;22.92;;
2053;SDS011;1032;52.542;13.440;2023-03-01T01:49:10;30.13;;;21.45;;
2053;SDS011;1032;52.542;13.440;2023-03-01T01:51:47;34.30;;;21.85;;
2053;SDS011;1032;52.542;13.440;2023-03-01T01:54:18;33.15;;;22.20;;
2053;SDS011;1032;52.542;13.440;2023-03-01T01:56:47;31.98;;;22.15;;
2053;SDS011;1032;52.542;13.440;2023-03-01T01:59:18;33.03;;;22.38;;
2053;SDS011;1032;52.542;13.440;2023-03-01T02:01:49;30.40;;;22.30;;
2053;SDS011;1032;52.542;13.440;2023-03-01T02:04:16;35.78;;;21.50;;
2053;SDS011;1032;52.542;13.440;2023-03-01T02:06:45;33.63;;;22.58;;
2053;SDS011;1032;52.542;13.440;2023-03-01T02:09:17;29.88;;;23.20;;
2053;SDS011;1032;52.542;13.440;2023-03-01T02:11:47;30.15;;;20.95;;
2053;SDS011;1032;52.542;13.440;2023-03-01T02:14:16;30.33;;;21.17;;
2053;SDS011;1032;52.542;13.440;2023-03-01T02:16:43;33.83;;;22.38;;
2053;SDS011;1032;52.542;13.440;2023-03-01T02:19:11;36.45;;;23.33;;
2053;SDS011;1032;52.542;13.440;2023-03-01T02:21:55;32.42;;;23.75;;
2053;SDS011;1032;52.542;13.440;2023-03-01T02:24:31;36.22;;;22.30;;
2053;SDS011;1032;52.542;13.440;2023-03-01T02:27:04;30.42;;;21.70;;
2053;SDS011;1032;52.542;13.440;2023-03-01T02:29:33;29.90;;;21.52;;
2053;SDS011;1032;52.542;13.440;2023-03-01T02:32:00;31.40;;;21.38;;
2053;SDS011;1032;52.542;13.440;2023-03-01T02:34:29;31.70;;;21.90;;
2053;SDS011;1032;52.542;13.440;2023-03-01T02:36:59;32.35;;;23.80;;
2053;SDS011;1032;52.542;13.440;2023-03-01T02:39:30;32.33;;;22.02;;
2053;SDS011;1032;52.542;13.440;2023-03-01T02:42:00;32.00;;;22.73;;
2053;SDS011;1032;52.542;13.440;2023-03-01T02:44:28;33.60;;;24.38;;
2053;SDS011;1032;52.542;13.440;2023-03-01T02:46:56;29.75;;;21.45;;
2053;SDS011;1032;52.542;13.440;2023-03-01T02:49:27;31.27;;;22.00;;
2053;SDS011;1032;52.542;13.440;2023-03-01T02:52:02;28.48;;;22.98;;
2053;SDS011;1032;52.542;13.440;2023-03-01T02:54:52;35.05;;;23.25;;
2053;SDS011;1032;52.542;13.440;2023-03-01T02:57:24;30.27;;;22.05;;
2053;SDS011;1032;52.542;13.440;2023-03-01T02:59:54;35.25;;;22.98;;
2053;SDS011;1032;52.542;13.440;2023-03-01T03:02:24;28.90;;;21.75;;
2053;SDS011;1032;52.542;13.440;2023-03-01T03:05:06;36.08;;;23.60;;
2053;SDS011;1032;52.542;13.440;2023-03-01T03:07:35;33.10;;;21.67;;
2053;SDS011;1032;52.542;13.440;2023-03-01T03:10:03;28.27;;;20.38;;
2053;SDS011;1032;52.542;13.440;2023-03-01T03:12:32;30.88;;;22.38;;
2053;SDS011;1032;52.542;13.440;2023-03-01T03:14:59;32.35;;;22.95;;
2053;SDS011;1032;52.542;13.440;2023-03-01T03:17:27;30.17;;;21.02;;
2053;SDS011;1032;52.542;13.440;2023-03-01T03:19:54;35.45;;;22.17;;
2053;SDS011;1032;52.542;13.440;2023-03-01T03:22:20;30.67;;;22.42;;
2053;SDS011;1032;52.542;13.440;2023-03-01T03:24:47;30.10;;;23.30;;
2053;SDS011;1032;52.542;13.440;2023-03-01T03:27:14;33.55;;;22.55;;
2053;SDS011;1032;52.542;13.440;2023-03-01T03:29:40;28.05;;;20.27;;
2053;SDS011;1032;52.542;13.440;2023-03-01T03:32:07;27.83;;;20.88;;
2053;SDS011;1032;52.542;13.440;2023-03-01T03:34:35;28.73;;;21.33;;
2053;SDS011;1032;52.542;13.440;2023-03-01T03:37:01;36.33;;;20.98;;
2053;SDS011;1032;52.542;13.440;2023-03-01T03:39:28;29.25;;;19.75;;
2053;SDS011;1032;52.542;13.440;2023-03-01T03:41:59;31.30;;;21.65;;
2053;SDS011;1032;52.542;13.440;2023-03-01T03:44:27;30.55;;;20.38;;
2053;SDS011;1032;52.542;13.440;2023-03-01T03:46:53;31.27;;;22.30;;
2053;SDS011;1032;52.542;13.440;2023-03-01T03:49:20;36.33;;;21.67;;
2053;SDS011;1032;52.542;13.440;2023-03-01T03:51:48;30.25;;;21.50;;
2053;SDS011;1032;52.542;13.440;2023-03-01T03:54:14;30.50;;;21.05;;
2053;SDS011;1032;52.542;13.440;2023-03-01T03:56:42;25.88;;;20.20;;
2053;SDS011;1032;52.542;13.440;2023-03-01T03:59:08;29.55;;;21.30;;
2053;SDS011;1032;52.542;13.440;2023-03-01T04:01:36;36.35;;;21.85;;
2053;SDS011;1032;52.542;13.440;2023-03-01T04:04:03;33.70;;;22.25;;
2053;SDS011;1032;52.542;13.440;2023-03-01T04:06:30;32.35;;;21.45;;
2053;SDS011;1032;52.542;13.440;2023-03-01T04:08:58;28.38;;;21.65;;
2053;SDS011;1032;52.542;13.440;2023-03-01T04:11:28;26.45;;;19.98;;
2053;SDS011;1032;52.542;13.440;2023-03-01T04:13:55;31.33;;;22.08;;
2053;SDS011;1032;52.542;13.440;2023-03-01T04:16:23;34.35;;;21.95;;
2053;SDS011;1032;52.542;13.440;2023-03-01T04:18:50;35.60;;;23.35;;
2053;SDS011;1032;52.542;13.440;2023-03-01T04:21:18;33.63;;;20.75;;
2053;SDS011;1032;52.542;13.440;2023-03-01T04:23:45;35.95;;;22.02;;
2053;SDS011;1032;52.542;13.440;2023-03-01T04:26:13;27.33;;;21.23;;
2053;SDS011;1032;52.542;13.440;2023-03-01T04:28:40;31.20;;;22.58;;
2053;SDS011;1032;52.542;13.440;2023-03-01T04:31:10;30.65;;;20.92;;
2053;SDS011;1032;52.542;13.440;2023-03-01T04:33:40;32.92;;;22.20;;
2053;SDS011;1032;52.542;13.440;2023-03-01T04:36:08;26.60;;;20.75;;
2053;SDS011;1032;52.542;13.440;2023-03-01T04:38:36;35.80;;;22.42;;
2053;SDS011;1032;52.542;13.440;2023-03-01T04:41:04;28.30;;;22.13;;
2053;SDS011;1032;52.542;13.440;2023-03-01T04:43:32;33.70;;;23.63;;
2053;SDS011;1032;52.542;13.440;2023-03-01T04:46:02;30.58;;;22.08;;
2053;SDS011;1032;52.542;13.440;2023-03-01T04:48:31;32.10;;;21.23;;
2053;SDS011;1032;52.542;13.440;2023-03-01T04:50:58;32.90;;;21.42;;
2053;SDS011;1032;52.542;13.440;2023-03-01T04:53:26;31.13;;;21.05;;
2053;SDS011;1032;52.542;13.440;2023-03-01T04:55:54;34.25;;;22.40;;
2053;SDS011;1032;52.542;13.440;2023-03-01T04:58:21;29.00;;;22.05;;
2053;SDS011;1032;52.542;13.440;2023-03-01T05:00:49;30.67;;;21.08;;
2053;SDS011;1032;52.542;13.440;2023-03-01T05:03:17;30.73;;;21.60;;
2053;SDS011;1032;52.542;13.440;2023-03-01T05:05:44;33.35;;;21.98;;
2053;SDS011;1032;52.542;13.440;2023-03-01T05:08:12;30.60;;;22.27;;
2053;SDS011;1032;52.542;13.440;2023-03-01T05:10:42;38.75;;;22.23;;
2053;SDS011;1032;52.542;13.440;2023-03-01T05:13:12;29.17;;;20.83;;
2053;SDS011;1032;52.542;13.440;2023-03-01T05:15:40;31.13;;;20.55;;
2053;SDS011;1032;52.542;13.440;2023-03-01T05:18:08;30.65;;;20.52;;
2053;SDS011;1032;52.542;13.440;2023-03-01T05:20:36;36.05;;;23.90;;
2053;SDS011;1032;52.542;13.440;2023-03-01T05:23:04;33.92;;;22.23;;
2053;SDS011;1032;52.542;13.440;2023-03-01T05:25:31;33.42;;;22.20;;
2053;SDS011;1032;52.542;13.440;2023-03-01T05:27:59;33.00;;;21.30;;
2053;SDS011;1032;52.542;13.440;2023-03-01T05:30:29;36.10;;;22.25;;
2053;SDS011;1032;52.542;13.440;2023-03-01T05:32:57;32.15;;;22.48;;
2053;SDS011;1032;52.542;13.440;2023-03-01T05:35:26;36.38;;;24.35;;
2053;SDS011;1032;52.542;13.440;2023-03-01T05:37:54;34.28;;;23.50;;
2053;SDS011;1032;52.542;13.440;2023-03-01T05:40:22;34.85;;;21.60;;
2053;SDS011;1032;52.542;13.440;2023-03-01T05:42:51;38.75;;;22.42;;
2053;SDS011;1032;52.542;13.440;2023-03-01T05:45:19;35.65;;;23.40;;
2053;SDS011;1032;52.542;13.440;2023-03-01T05:47:47;37.67;;;22.67;;
2053;SDS011;1032;52.542;13.440;2023-03-01T05:50:16;31.73;;;22.08;;
2053;SDS011;1032;52.542;13.440;2023-03-01T05:52:46;40.65;;;23.80;;
2053;SDS011;1032;52.542;13.440;2023-03-01T05:55:15;34.63;;;21.40;;
2053;SDS011;1032;52.542;13.440;2023-03-01T05:57:43;35.63;;;23.00;;
2053;SDS011;1032;52.542;13.440;2023-03-01T06:00:13;43.72;;;23.63;;
2053;SDS011;1032;52.542;13.440;2023-03-01T06:02:41;39.63;;;24.08;;
2053;SDS011;1032;52.542;13.440;2023-03-01T06:05:09;36.63;;;23.00;;
2053;SDS011;1032;52.542;13.440;2023-03-01T06:07:36;41.95;;;23.70;;
2053;SDS011;1032;52.542;13.440;2023-03-01T06:10:06;33.80;;;22.65;;
2053;SDS011;1032;52.542;13.440;2023-03-01T06:12:35;40.72;;;24.20;;
2053;SDS011;1032;52.542;13.440;2023-03-01T06:15:03;38.63;;;26.00;;
2053;SDS011;1032;52.542;13.440;2023-03-01T06:17:31;42.70;;;25.08;;
2053;SDS011;1032;52.542;13.440;2023-03-01T06:20:02;37.28;;;23.15;;
2053;SDS011;1032;52.542;13.440;2023-03-01T06:22:29;38.88;;;22.70;;
2053;SDS011;1032;52.542;13.440;2023-03-01T06:24:56;43.95;;;25.10;;
2053;SDS011;1032;52.542;13.440;2023-03-01T06:27:24;38.63;;;23.30;;
2053;SDS011;1032;52.542;13.440;2023-03-01T06:29:51;74.22;;;24.45;;
2053;SDS011;1032;52.542;13.440;2023-03-01T06:32:17;31.52;;;21.63;;
2053;SDS011;1032;52.542;13.440;2023-03-01T06:34:44;40.35;;;23.48;;
2053;SDS011;1032;52.542;13.440;2023-03-01T06:37:11;43.78;;;25.85;;
2053;SDS011;1032;52.542;13.440;2023-03-01T06:39:38;41.65;;;23.52;;
2053;SDS011;1032;52.542;13.440;2023-03-01T06:42:05;36.10;;;23.58;;
2053;SDS011;1032;52.542;13.440;2023-03-01T06:44:34;39.15;;;24.00;;
2053;SDS011;1032;52.542;13.440;2023-03-01T06:47:01;33.25;;;24.17;;
2053;SDS011;1032;52.542;13.440;2023-03-01T06:49:28;37.60;;;24.80;;
2053;SDS011;1032;52.542;13.440;2023-03-01T06:51:55;33.80;;;22.30;;
2053;SDS011;1032;52.542;13.440;2023-03-01T06:54:22;35.40;;;23.45;;
2053;SDS011;1032;52.542;13.440;2023-03-01T06:56:49;40.60;;;24.58;;
2053;SDS011;1032;52.542;13.440;2023-03-01T06:59:16;37.22;;;24.67;;
2053;SDS011;1032;52.542;13.440;2023-03-01T07:01:44;47.75;;;25.27;;
2053;SDS011;1032;52.542;13.440;2023-03-01T07:04:12;37.83;;;24.52;;
2053;SDS011;1032;52.542;13.440;2023-03-01T07:06:39;41.40;;;24.13;;
2053;SDS011;1032;52.542;13.440;2023-03-01T07:09:05;36.75;;;24.48;;
2053;SDS011;1032;52.542;13.440;2023-03-01T07:11:32;38.53;;;25.40;;
2053;SDS011;1032;52.542;13.440;2023-03-01T07:13:58;36.30;;;25.55;;
2053;SDS011;1032;52.542;13.440;2023-03-01T07:16:26;41.33;;;26.05;;
2053;SDS011;1032;52.542;13.440;2023-03-01T07:18:54;35.35;;;25.02;;
2053;SDS011;1032;52.542;13.440;2023-03-01T07:21:20;43.10;;;27.63;;
2053;SDS011;1032;52.542;13.440;2023-03-01T07:23:47;36.50;;;25.50;;
2053;SDS011;1032;52.542;13.440;2023-03-01T07:26:14;36.33;;;26.60;;
2053;SDS011;1032;52.542;13.440;2023-03-01T07:28:41;36.42;;;25.90;;
2053;SDS011;1032;52.542;13.440;2023-03-01T07:31:07;41.80;;;26.10;;
2053;SDS011;1032;52.542;13.440;2023-03-01T07:33:34;46.85;;;26.40;;
2053;SDS011;1032;52.542;13.440;2023-03-01T07:36:03;43.47;;;28.25;;
2053;SDS011;1032;52.542;13.440;2023-03-01T07:38:30;42.50;;;28.63;;
2053;SDS011;1032;52.542;13.440;2023-03-01T07:40:57;42.45;;;28.08;;
2053;SDS011;1032;52.542;13.440;2023-03-01T07:43:25;53.22;;;30.00;;
2053;SDS011;1032;52.542;13.440;2023-03-01T07:45:52;42.42;;;27.02;;
2053;SDS011;1032;52.542;13.440;2023-03-01T07:48:18;45.10;;;27.00;;
2053;SDS011;1032;52.542;13.440;2023-03-01T07:50:45;39.50;;;25.85;;
2053;SDS011;1032;52.542;13.440;2023-03-01T07:53:13;40.95;;;25.02;;
2053;SDS011;1032;52.542;13.440;2023-03-01T07:55:40;35.95;;;24.05;;
2053;SDS011;1032;52.542;13.440;2023-03-01T07:58:07;42.90;;;25.55;;
2053;SDS011;1032;52.542;13.440;2023-03-01T08:00:33;39.58;;;26.23;;
2053;SDS011;1032;52.542;13.440;2023-03-01T08:03:00;34.60;;;23.13;;
2053;SDS011;1032;52.542;13.440;2023-03-01T08:05:27;34.78;;;23.05;;
2053;SDS011;1032;52.542;13.440;2023-03-01T08:07:54;32.45;;;22.95;;
2053;SDS011;1032;52.542;13.440;2023-03-01T08:10:22;38.55;;;22.15;;
2053;SDS011;1032;52.542;13.440;2023-03-01T08:12:50;44.45;;;24.77;;
2053;SDS011;1032;52.542;13.440;2023-03-01T08:15:18;35.90;;;23.50;;
2053;SDS011;1032;52.542;13.440;2023-03-01T08:17:48;32.60;;;22.77;;
2053;SDS011;1032;52.542;13.440;2023-03-01T08:20:15;23.58;;;18.27;;
2053;SDS011;1032;52.542;13.440;2023-03-01T08:22:42;20.45;;;14.48;;
2053;SDS011;1032;52.542;13.440;2023-03-01T08:25:08;24.23;;;15.30;;
2053;SDS011;1032;52.542;13.440;2023-03-01T08:27:36;19.25;;;13.00;;
2053;SDS011;1032;52.542;13.440;2023-03-01T08:30:04;18.95;;;13.05;;
2053;SDS011;1032;52.542;13.440;2023-03-01T08:32:35;15.70;;;11.18;;
2053;SDS011;1032;52.542;13.440;2023-03-01T08:35:03;23.20;;;10.18;;
2053;SDS011;1032;52.542;13.440;2023-03-01T08:37:30;16.52;;;10.60;;
2053;SDS011;1032;52.542;13.440;2023-03-01T08:39:57;17.25;;;10.55;;
2053;SDS011;1032;52.542;13.440;2023-03-01T08:42:24;10.57;;;7.00;;
2053;SDS011;1032;52.542;13.440;2023-03-01T08:44:52;9.73;;;7.97;;
2053;SDS011;1032;52.542;13.440;2023-03-01T08:47:19;13.27;;;7.35;;
2053;SDS011;1032;52.542;13.440;2023-03-01T08:49:46;12.88;;;7.38;;
2053;SDS011;1032;52.542;13.440;2023-03-01T08:52:12;11.00;;;7.15;;
2053;SDS011;1032;52.542;13.440;2023-03-01T08:54:39;12.02;;;7.88;;
2053;SDS011;1032;52.542;13.440;2023-03-01T08:57:05;16.55;;;7.55;;
2053;SDS011;1032;52.542;13.440;2023-03-01T08:59:34;13.63;;;8.65;;
2053;SDS011;1032;52.542;13.440;2023-03-01T09:02:05;12.57;;;6.85;;
2053;SDS011;1032;52.542;13.440;2023-03-01T09:04:36;11.65;;;5.80;;
2053;SDS011;1032;52.542;13.440;2023-03-01T09:07:03;12.25;;;6.57;;
2053;SDS011;1032;52.542;13.440;2023-03-01T09:09:30;9.93;;;6.25;;
2053;SDS011;1032;52.542;13.440;2023-03-01T09:11:56;9.70;;;6.35;;
2053;SDS011;1032;52.542;13.440;2023-03-01T09:14:23;8.77;;;6.22;;
2053;SDS011;1032;52.542;13.440;2023-03-01T09:16:50;9.18;;;6.63;;
2053;SDS011;1032;52.542;13.440;2023-03-01T09:19:18;10.85;;;6.13;;
2053;SDS011;1032;52.542;13.440;2023-03-01T09:21:44;16.25;;;8.32;;
2053;SDS011;1032;52.542;13.440;2023-03-01T09:24:17;11.20;;;6.30;;
2053;SDS011;1032;52.542;13.440;2023-03-01T09:26:46;14.20;;;6.68;;
2053;SDS011;1032;52.542;13.440;2023-03-01T09:29:13;18.63;;;6.90;;
2053;SDS011;1032;52.542;13.440;2023-03-01T09:31:40;9.90;;;6.13;;
2053;SDS011;1032;52.542;13.440;2023-03-01T09:34:08;9.52;;;6.53;;
2053;SDS011;1032;52.542;13.440;2023-03-01T09:36:36;9.73;;;6.97;;
2053;SDS011;1032;52.542;13.440;2023-03-01T09:39:03;11.63;;;7.22;;
2053;SDS011;1032;52.542;13.440;2023-03-01T09:41:36;12.07;;;7.80;;
2053;SDS011;1032;52.542;13.440;2023-03-01T09:44:18;10.90;;;7.50;;
2053;SDS011;1032;52.542;13.440;2023-03-01T09:46:53;8.80;;;6.03;;
2053;SDS011;1032;52.542;13.440;2023-03-01T09:49:22;9.52;;;6.80;;
2053;SDS011;1032;52.542;13.440;2023-03-01T09:51:57;7.32;;;5.35;;
2053;SDS011;1032;52.542;13.440;2023-03-01T09:54:27;10.23;;;5.75;;
2053;SDS011;1032;52.542;13.440;2023-03-01T09:56:57;16.20;;;7.40;;
2053;SDS011;1032;52.542;13.440;2023-03-01T09:59:32;7.63;;;5.35;;
2053;SDS011;1032;52.542;13.440;2023-03-01T10:02:16;12.45;;;7.90;;
2053;SDS011;1032;52.542;13.440;2023-03-01T10:04:49;14.80;;;6.90;;
2053;SDS011;1032;52.542;13.440;2023-03-01T10:07:25;12.75;;;7.88;;
2053;SDS011;1032;52.542;13.440;2023-03-01T10:09:58;8.27;;;5.00;;
2053;SDS011;1032;52.542;13.440;2023-03-01T10:12:30;7.43;;;4.68;;
2053;SDS011;1032;52.542;13.440;2023-03-01T10:15:02;7.70;;;5.00;;
2053;SDS011;1032;52.542;13.440;2023-03-01T10:17:35;7.82;;;5.38;;
2053;SDS011;1032;52.542;13.440;2023-03-01T10:20:14;6.55;;;3.83;;
2053;SDS011;1032;52.542;13.440;2023-03-01T10:22:45;8.73;;;4.93;;
2053;SDS011;1032;52.542;13.440;2023-03-01T10:25:15;7.40;;;4.35;;
2053;SDS011;1032;52.542;13.440;2023-03-01T10:27:47;12.52;;;6.25;;
2053;SDS011;1032;52.542;13.440;2023-03-01T10:30:19;7.90;;;4.68;;
2053;SDS011;1032;52.542;13.440;2023-03-01T10:32:49;12.02;;;4.82;;
2053;SDS011;1032;52.542;13.440;2023-03-01T10:35:19;9.82;;;4.72;;
2053;SDS011;1032;52.542;13.440;2023-03-01T10:37:57;6.43;;;4.65;;
2053;SDS011;1032;52.542;13.440;2023-03-01T10:40:28;6.00;;;4.00;;
2053;SDS011;1032;52.542;13.440;2023-03-01T10:42:57;9.07;;;3.78;;
2053;SDS011;1032;52.542;13.440;2023-03-01T10:45:30;7.38;;;4.05;;
2053;SDS011;1032;52.542;13.440;2023-03-01T10:48:06;10.15;;;4.85;;
2053;SDS011;1032;52.542;13.440;2023-03-01T10:50:38;6.43;;;4.20;;
2053;SDS011;1032;52.542;13.440;2023-03-01T10:53:16;6.95;;;3.95;;
2053;SDS011;1032;52.542;13.440;2023-03-01T10:55:58;5.20;;;3.70;;
2053;SDS011;1032;52.542;13.440;2023-03-01T10:58:28;6.97;;;3.75;;
2053;SDS011;1032;52.542;13.440;2023-03-01T11:00:56;3.90;;;3.00;;
2053;SDS011;1032;52.542;13.440;2023-03-01T11:03:26;7.13;;;3.10;;
2053;SDS011;1032;52.542;13.440;2023-03-01T11:05:55;11.52;;;3.70;;
2053;SDS011;1032;52.542;13.440;2023-03-01T11:08:33;5.85;;;3.22;;
2053;SDS011;1032;52.542;13.440;2023-03-01T11:11:05;7.35;;;2.60;;
2053;SDS011;1032;52.542;13.440;2023-03-01T11:13:39;7.00;;;3.13;;
2053;SDS011;1032;52.542;13.440;2023-03-01T11:16:17;3.47;;;2.75;;
2053;SDS011;1032;52.542;13.440;2023-03-01T11:18:55;7.25;;;3.15;;
2053;SDS011;1032;52.542;13.440;2023-03-01T11:21:23;6.20;;;3.20;;
2053;SDS011;1032;52.542;13.440;2023-03-01T11:23:53;8.17;;;3.83;;
2053;SDS011;1032;52.542;13.440;2023-03-01T11:26:20;8.03;;;4.00;;
2053;SDS011;1032;52.542;13.440;2023-03-01T11:28:49;7.93;;;3.27;;
2053;SDS011;1032;52.542;13.440;2023-03-01T11:31:19;7.32;;;2.90;;
2053;SDS011;1032;52.542;13.440;2023-03-01T11:33:49;6.22;;;3.00;;
2053;SDS011;1032;52.542;13.440;2023-03-01T11:36:24;5.45;;;3.65;;
2053;SDS011;1032;52.542;13.440;2023-03-01T11:38:57;11.00;;;3.58;;
2053;SDS011;1032;52.542;13.440;2023-03-01T11:41:38;9.32;;;3.17;;
2053;SDS011;1032;52.542;13.440;2023-03-01T11:44:09;10.40;;;4.07;;
2053;SDS011;1032;52.542;13.440;2023-03-01T11:46:47;4.40;;;3.47;;
2053;SDS011;1032;52.542;13.440;2023-03-01T11:49:29;5.28;;;3.05;;
2053;SDS011;1032;52.542;13.440;2023-03-01T11:52:06;8.60;;;3.42;;
2053;SDS011;1032;52.542;13.440;2023-03-01T11:54:47;5.07;;;3.50;;
2053;SDS011;1032;52.542;13.440;2023-03-01T11:57:29;5.97;;;3.85;;
2053;SDS011;1032;52.542;13.440;2023-03-01T12:03:16;6.40;;;3.30;;
2053;SDS011;1032;52.542;13.440;2023-03-01T12:06:05;8.43;;;3.37;;
2053;SDS011;1032;52.542;13.440;2023-03-01T12:08:49;14.90;;;2.97;;
2053;SDS011;1032;52.542;13.440;2023-03-01T12:11:26;5.63;;;3.47;;
2053;SDS011;1032;52.542;13.440;2023-03-01T12:14:19;6.20;;;3.20;;
2053;SDS011;1032;52.542;13.440;2023-03-01T12:17:11;5.60;;;3.50;;
2053;SDS011;1032;52.542;13.440;2023-03-01T12:19:56;3.70;;;3.00;;
2053;SDS011;1032;52.542;13.440;2023-03-01T12:22:42;4.90;;;3.43;;
2053;SDS011;1032;52.542;13.440;2023-03-01T12:25:20;14.50;;;4.50;;
2053;SDS011;1032;52.542;13.440;2023-03-01T12:28:07;10.07;;;3.50;;
2053;SDS011;1032;52.542;13.440;2023-03-01T12:30:57;5.70;;;3.80;;
2053;SDS011;1032;52.542;13.440;2023-03-01T12:33:37;10.33;;;3.97;;
2053;SDS011;1032;52.542;13.440;2023-03-01T12:38:51;5.30;;;3.13;;
2053;SDS011;1032;52.542;13.440;2023-03-01T12:41:35;5.20;;;3.77;;
2053;SDS011;1032;52.542;13.440;2023-03-01T12:44:23;5.77;;;3.07;;
2053;SDS011;1032;52.542;13.440;2023-03-01T12:47:03;5.80;;;3.23;;
2053;SDS011;1032;52.542;13.440;2023-03-01T12:49:39;10.53;;;5.23;;
2053;SDS011;1032;52.542;13.440;2023-03-01T12:52:10;4.17;;;3.00;;
2053;SDS011;1032;52.542;13.440;2023-03-01T12:54:42;6.77;;;3.80;;
2053;SDS011;1032;52.542;13.440;2023-03-01T12:57:12;5.00;;;3.07;;
2053;SDS011;1032;52.542;13.440;2023-03-01T12:59:47;5.67;;;2.87;;
2053;SDS011;1032;52.542;13.440;2023-03-01T13:02:26;6.10;;;3.40;;
2053;SDS011;1032;52.542;13.440;2023-03-01T13:05:00;6.20;;;3.10;;
2053;SDS011;1032;52.542;13.440;2023-03-01T13:07:40;5.87;;;3.13;;
2053;SDS011;1032;52.542;13.440;2023-03-01T13:10:15;4.10;;;2.93;;
2053;SDS011;1032;52.542;13.440;2023-03-01T13:12:52;6.67;;;3.23;;
2053;SDS011;1032;52.542;13.440;2023-03-01T13:15:29;7.85;;;3.35;;
2053;SDS011;1032;52.542;13.440;2023-03-01T13:17:58;7.17;;;2.73;;
2053;SDS011;1032;52.542;13.440;2023-03-01T13:20:27;3.93;;;3.00;;
2053;SDS011;1032;52.542;13.440;2023-03-01T13:23:02;7.43;;;3.27;;
2053;SDS011;1032;52.542;13.440;2023-03-01T13:25:31;4.30;;;3.00;;
2053;SDS011;1032;52.542;13.440;2023-03-01T13:31:09;4.67;;;3.07;;
2053;SDS011;1032;52.542;13.440;2023-03-01T13:33:40;8.87;;;3.40;;
2053;SDS011;1032;52.542;13.440;2023-03-01T13:36:08;5.67;;;3.97;;
2053;SDS011;1032;52.542;13.440;2023-03-01T13:38:45;8.23;;;3.60;;
2053;SDS011;1032;52.542;13.440;2023-03-01T13:41:13;5.53;;;3.37;;
2053;SDS011;1032;52.542;13.440;2023-03-01T13:43:41;5.90;;;3.40;;
2053;SDS011;1032;52.542;13.440;2023-03-01T13:46:12;3.93;;;2.70;;
2053;SDS011;1032;52.542;13.440;2023-03-01T13:48:45;3.53;;;2.50;;
2053;SDS011;1032;52.542;13.440;2023-03-01T13:51:15;4.37;;;3.20;;
2053;SDS011;1032;52.542;13.440;2023-03-01T13:53:42;5.30;;;3.07;;
2053;SDS011;1032;52.542;13.440;2023-03-01T13:56:12;5.37;;;3.23;;
2053;SDS011;1032;52.542;13.440;2023-03-01T13:58:46;3.47;;;2.60;;
2053;SDS011;1032;52.542;13.440;2023-03-01T14:01:24;5.23;;;2.70;;
2053;SDS011;1032;52.542;13.440;2023-03-01T14:03:53;6.00;;;2.77;;
2053;SDS011;1032;52.542;13.440;2023-03-01T14:06:21;7.07;;;3.70;;
2053;SDS011;1032;52.542;13.440;2023-03-01T14:08:49;5.10;;;2.63;;
2053;SDS011;1032;52.542;13.440;2023-03-01T14:11:22;7.90;;;5.13;;
2053;SDS011;1032;52.542;13.440;2023-03-01T14:14:06;6.30;;;3.77;;
2053;SDS011;1032;52.542;13.440;2023-03-01T14:16:47;6.87;;;3.60;;
2053;SDS011;1032;52.542;13.440;2023-03-01T14:19:21;6.97;;;4.30;;
2053;SDS011;1032;52.542;13.440;2023-03-01T14:21:58;8.17;;;4.30;;
2053;SDS011;1032;52.542;13.440;2023-03-01T14:24:27;4.70;;;3.17;;
2053;SDS011;1032;52.542;13.440;2023-03-01T14:26:55;4.93;;;3.10;;
2053;SDS011;1032;52.542;13.440;2023-03-01T14:29:33;7.67;;;2.90;;
2053;SDS011;1032;52.542;13.440;2023-03-01T14:32:15;10.63;;;3.27;;
2053;SDS011;1032;52.542;13.440;2023-03-01T14:34:45;6.33;;;3.87;;
2053;SDS011;1032;52.542;13.440;2023-03-01T14:37:18;5.97;;;3.70;;
2053;SDS011;1032;52.542;13.440;2023-03-01T14:39:47;6.27;;;3.53;;
2053;SDS011;1032;52.542;13.440;2023-03-01T14:42:14;5.10;;;3.60;;
2053;SDS011;1032;52.542;13.440;2023-03-01T14:44:42;5.90;;;3.20;;
2053;SDS011;1032;52.542;13.440;2023-03-01T14:47:13;5.97;;;3.30;;
2053;SDS011;1032;52.542;13.440;2023-03-01T14:49:45;6.47;;;3.10;;
2053;SDS011;1032;52.542;13.440;2023-03-01T14:52:17;5.67;;;3.70;;
2053;SDS011;1032;52.542;13.440;2023-03-01T14:54:46;3.20;;;2.90;;
2053;SDS011;1032;52.542;13.440;2023-03-01T14:57:16;40.40;;;14.60;;
2053;SDS011;1032;52.542;13.440;2023-03-01T14:59:45;6.87;;;3.50;;
2053;SDS011;1032;52.542;13.440;2023-03-01T15:02:15;7.33;;;3.37;;
2053;SDS011;1032;52.542;13.440;2023-03-01T15:04:45;5.67;;;3.30;;
2053;SDS011;1032;52.542;13.440;2023-03-01T15:07:14;6.60;;;3.50;;
2053;SDS011;1032;52.542;13.440;2023-03-01T15:09:42;5.47;;;3.07;;